createdAt,value
2022-11-17T00:00:41.214Z,47.05
2022-11-17T00:01:41.244Z,46.73
2022-11-17T00:02:41.231Z,44.96
2022-11-17T00:03:41.174Z,46.08
2022-11-17T00:04:41.155Z,49.15
2022-11-17T00:05:41.159Z,50.60
2022-11-17T00:06:41.127Z,45.76
2022-11-17T00:07:41.108Z,51.72
2022-11-17T00:08:41.097Z,48.02
2022-11-17T00:09:41.115Z,56.56
2022-11-17T00:10:41.092Z,45.28
2022-11-17T00:11:41.073Z,50.43
2022-11-17T00:12:41.055Z,45.60
2022-11-17T00:13:41.047Z,56.72
2022-11-17T00:14:41.026Z,46.25
2022-11-17T00:15:41.049Z,52.37
2022-11-17T00:16:40.986Z,44.96
2022-11-17T00:17:40.996Z,47.70
2022-11-17T00:18:40.968Z,47.70
2022-11-17T00:19:40.957Z,45.44
2022-11-17T00:20:40.962Z,47.37
2022-11-17T00:21:40.927Z,48.02
2022-11-17T00:22:40.916Z,47.37
2022-11-17T00:23:40.898Z,50.60
2022-11-17T00:24:40.879Z,47.05
2022-11-17T00:25:40.896Z,47.70
2022-11-17T00:26:40.883Z,49.79
2022-11-17T00:27:40.888Z,52.21
2022-11-17T00:28:40.835Z,56.40
2022-11-17T00:29:40.839Z,52.85
2022-11-17T00:30:43.818Z,51.08
2022-11-17T00:31:40.801Z,54.14
2022-11-17T00:32:40.768Z,56.72
2022-11-17T00:33:40.791Z,58.49
2022-11-17T00:34:40.759Z,59.30
2022-11-17T00:35:40.770Z,59.62
2022-11-17T00:36:40.748Z,59.78
2022-11-17T00:37:40.789Z,58.49
2022-11-17T00:38:40.713Z,58.49
2022-11-17T00:39:40.719Z,57.85
2022-11-17T00:40:40.705Z,55.11
2022-11-17T00:41:40.691Z,60.10
2022-11-17T00:42:40.648Z,55.11
2022-11-17T00:43:40.646Z,56.56
2022-11-17T00:44:40.667Z,56.88
2022-11-17T00:45:40.619Z,58.01
2022-11-17T00:46:40.588Z,56.88
2022-11-17T00:47:40.579Z,56.72
2022-11-17T00:48:40.579Z,60.59
2022-11-17T00:49:40.577Z,59.78
2022-11-17T00:50:40.541Z,59.78
2022-11-17T00:51:40.530Z,61.55
2022-11-17T00:52:40.560Z,60.10
2022-11-17T00:53:40.491Z,60.75
2022-11-17T00:54:40.494Z,62.84
2022-11-17T00:55:40.529Z,61.39
2022-11-17T00:56:40.491Z,57.69
2022-11-17T00:57:40.442Z,58.81
2022-11-17T00:58:40.465Z,61.55
2022-11-17T00:59:40.429Z,59.46
2022-11-17T01:00:40.463Z,58.49
2022-11-17T01:01:40.437Z,58.01
2022-11-17T01:02:40.389Z,55.91
2022-11-17T01:03:40.363Z,56.88
2022-11-17T01:04:40.354Z,57.69
2022-11-17T01:05:40.363Z,56.72
2022-11-17T01:06:40.331Z,55.75
2022-11-17T01:07:40.411Z,58.01
2022-11-17T01:08:40.294Z,59.94
2022-11-17T01:09:40.307Z,56.24
2022-11-17T01:10:40.283Z,63.16
2022-11-17T01:11:40.284Z,58.49
2022-11-17T01:12:40.262Z,63.49
2022-11-17T01:13:40.235Z,56.56
2022-11-17T01:14:40.212Z,59.94
2022-11-17T01:15:40.223Z,56.40
2022-11-17T01:16:40.195Z,61.39
2022-11-17T01:17:40.184Z,57.69
2022-11-17T01:18:40.185Z,61.87
2022-11-17T01:19:40.176Z,56.88
2022-11-17T01:20:40.154Z,56.56
2022-11-17T01:21:40.134Z,60.42
2022-11-17T01:22:40.117Z,56.56
2022-11-17T01:23:40.100Z,57.69
2022-11-17T01:24:40.084Z,58.33
2022-11-17T01:25:40.086Z,54.62
2022-11-17T01:26:40.063Z,55.91
2022-11-17T01:27:40.045Z,60.59
2022-11-17T01:28:40.031Z,54.95
2022-11-17T01:29:40.045Z,55.27
2022-11-17T01:30:40.019Z,55.59
2022-11-17T01:31:40.027Z,56.07
2022-11-17T01:32:39.977Z,56.40
2022-11-17T01:33:39.988Z,61.55
2022-11-17T01:34:39.967Z,59.30
2022-11-17T01:35:39.989Z,59.46
2022-11-17T01:36:39.935Z,60.91
2022-11-17T01:37:39.907Z,57.04
2022-11-17T01:38:39.908Z,56.07
2022-11-17T01:39:39.888Z,57.36
2022-11-17T01:40:39.879Z,53.50
2022-11-17T01:41:39.880Z,54.95
2022-11-17T01:42:39.838Z,51.88
2022-11-17T01:43:39.856Z,48.66
2022-11-17T01:44:39.808Z,49.31
2022-11-17T01:45:39.849Z,50.76
2022-11-17T01:46:39.838Z,51.40
2022-11-17T01:47:39.779Z,45.44
2022-11-17T01:48:39.760Z,48.34
2022-11-17T01:49:39.747Z,49.95
2022-11-17T01:50:39.738Z,49.15
2022-11-17T01:51:39.750Z,50.76
2022-11-17T01:52:39.705Z,46.08
2022-11-17T01:53:39.688Z,47.21
2022-11-17T01:54:39.698Z,50.11
2022-11-17T01:55:39.670Z,47.05
2022-11-17T01:56:39.660Z,50.92
2022-11-17T01:57:39.640Z,51.56
2022-11-17T01:58:39.619Z,52.53
2022-11-17T01:59:39.624Z,51.24
2022-11-17T02:00:39.605Z,47.86
2022-11-17T02:01:39.658Z,48.50
2022-11-17T02:02:39.581Z,51.72
2022-11-17T02:03:39.560Z,55.59
2022-11-17T02:04:39.551Z,52.37
2022-11-17T02:05:39.541Z,51.56
2022-11-17T02:06:39.569Z,47.05
2022-11-17T02:07:39.509Z,53.50
2022-11-17T02:08:39.508Z,56.40
2022-11-17T02:09:39.534Z,49.47
2022-11-17T02:10:39.469Z,50.76
2022-11-17T02:11:39.475Z,45.76
2022-11-17T02:12:39.450Z,49.47
2022-11-17T02:13:39.441Z,48.34
2022-11-17T02:14:39.416Z,47.05
2022-11-17T02:15:39.425Z,46.57
2022-11-17T02:16:39.391Z,45.76
2022-11-17T02:17:39.370Z,47.05
2022-11-17T02:18:39.352Z,56.56
2022-11-17T02:19:39.352Z,46.73
2022-11-17T02:20:39.330Z,58.65
2022-11-17T02:21:39.342Z,48.02
2022-11-17T02:22:39.300Z,54.79
2022-11-17T02:23:39.294Z,56.56
2022-11-17T02:24:39.270Z,46.57
2022-11-17T02:25:39.272Z,46.08
2022-11-17T02:26:39.281Z,47.05
2022-11-17T02:27:39.231Z,46.08
2022-11-17T02:28:39.246Z,46.25
2022-11-17T02:29:39.213Z,47.53
2022-11-17T02:30:39.225Z,53.33
2022-11-17T02:31:39.193Z,50.60
2022-11-17T02:32:39.168Z,50.60
2022-11-17T02:33:39.143Z,51.40
2022-11-17T02:34:39.151Z,48.18
2022-11-17T02:35:39.123Z,48.34
2022-11-17T02:36:39.156Z,46.41
2022-11-17T02:37:39.093Z,52.05
2022-11-17T02:38:39.090Z,51.72
2022-11-17T02:39:39.071Z,56.24
2022-11-17T02:40:39.064Z,49.15
2022-11-17T02:41:39.063Z,50.27
2022-11-17T02:42:39.052Z,49.31
2022-11-17T02:43:39.097Z,55.91
2022-11-17T02:44:39.003Z,49.95
2022-11-17T02:45:38.985Z,55.91
2022-11-17T02:46:39.009Z,51.88
2022-11-17T02:47:38.965Z,51.56
2022-11-17T02:48:38.954Z,53.82
2022-11-17T02:49:38.932Z,55.91
2022-11-17T02:50:38.932Z,47.53
2022-11-17T02:51:38.924Z,53.66
2022-11-17T02:52:38.894Z,48.34
2022-11-17T02:53:39.092Z,49.95
2022-11-17T02:54:38.882Z,49.63
2022-11-17T02:56:48.689Z,50.60
2022-11-17T02:57:48.650Z,55.59
2022-11-17T02:58:48.651Z,49.95
2022-11-17T02:59:48.630Z,53.01
2022-11-17T03:00:48.610Z,60.91
2022-11-17T03:01:48.636Z,49.63
2022-11-17T03:02:48.589Z,49.15
2022-11-17T03:03:48.571Z,58.65
2022-11-17T03:04:48.565Z,58.17
2022-11-17T03:05:48.540Z,54.79
2022-11-17T03:06:48.550Z,57.85
2022-11-17T03:07:48.531Z,56.56
2022-11-17T03:08:48.510Z,56.56
2022-11-17T03:09:48.484Z,50.11
2022-11-17T03:10:48.481Z,56.07
2022-11-17T03:11:48.473Z,54.30
2022-11-17T03:12:48.452Z,55.59
2022-11-17T03:13:48.441Z,56.88
2022-11-17T03:14:48.424Z,58.49
2022-11-17T03:15:48.402Z,60.26
2022-11-17T03:16:48.412Z,59.46
2022-11-17T03:17:48.381Z,63.65
2022-11-17T03:18:48.373Z,55.43
2022-11-17T03:19:48.351Z,55.59
2022-11-17T03:20:48.346Z,58.33
2022-11-17T03:21:48.341Z,51.08
2022-11-17T03:22:48.321Z,55.75
2022-11-17T03:23:48.303Z,49.63
2022-11-17T03:24:48.290Z,52.85
2022-11-17T03:25:48.270Z,54.62
2022-11-17T03:26:48.275Z,49.47
2022-11-17T03:27:48.242Z,48.50
2022-11-17T03:28:48.231Z,52.85
2022-11-17T03:29:48.213Z,57.04
2022-11-17T03:30:48.215Z,50.92
2022-11-17T03:31:48.210Z,47.86
2022-11-17T03:32:48.183Z,45.44
2022-11-17T03:33:48.161Z,53.33
2022-11-17T03:34:48.153Z,50.92
2022-11-17T03:35:50.826Z,54.30
2022-11-17T03:36:48.143Z,48.02
2022-11-17T03:37:48.105Z,47.53
2022-11-17T03:38:48.094Z,49.47
2022-11-17T03:39:48.084Z,47.37
2022-11-17T03:40:48.074Z,48.18
2022-11-17T03:41:48.074Z,48.66
2022-11-17T03:42:48.043Z,48.34
2022-11-17T03:43:48.024Z,52.69
2022-11-17T03:44:48.011Z,48.82
2022-11-17T03:45:48.004Z,46.73
2022-11-17T03:46:48.003Z,48.50
2022-11-17T03:47:47.973Z,47.86
2022-11-17T03:48:47.956Z,49.31
2022-11-17T03:49:47.944Z,55.43
2022-11-17T03:50:47.944Z,48.18
2022-11-17T03:51:47.934Z,47.53
2022-11-17T03:52:47.905Z,48.18
2022-11-17T03:53:47.893Z,56.40
2022-11-17T03:54:47.875Z,50.11
2022-11-17T03:55:47.874Z,47.37
2022-11-17T03:56:47.856Z,46.08
2022-11-17T03:57:47.837Z,47.86
2022-11-17T03:58:47.816Z,49.63
2022-11-17T03:59:47.825Z,52.69
2022-11-17T04:00:47.795Z,51.08
2022-11-17T04:01:47.865Z,54.62
2022-11-17T04:02:47.769Z,48.50
2022-11-17T04:03:47.756Z,53.17
2022-11-17T04:04:47.735Z,51.24
2022-11-17T04:05:47.726Z,50.27
2022-11-17T04:06:47.729Z,51.72
2022-11-17T04:07:47.706Z,47.86
2022-11-17T04:08:47.686Z,49.15
2022-11-17T04:09:47.676Z,48.02
2022-11-17T04:10:47.670Z,52.37
2022-11-17T04:11:47.679Z,49.31
2022-11-17T04:12:47.636Z,51.40
2022-11-17T04:13:47.630Z,46.73
2022-11-17T04:14:47.608Z,48.34
2022-11-17T04:15:47.606Z,49.63
2022-11-17T04:16:47.590Z,49.95
2022-11-17T04:17:47.567Z,50.27
2022-11-17T04:18:47.549Z,46.89
2022-11-17T04:19:47.539Z,48.18
2022-11-17T04:20:47.529Z,48.02
2022-11-17T04:21:47.537Z,46.57
2022-11-17T04:22:47.506Z,47.21
2022-11-17T04:23:47.487Z,48.98
2022-11-17T04:24:47.487Z,48.34
2022-11-17T04:25:47.458Z,53.82
2022-11-17T04:26:47.468Z,46.89
2022-11-17T04:27:47.428Z,46.73
2022-11-17T04:28:47.421Z,54.30
2022-11-17T04:29:47.408Z,47.86
2022-11-17T04:30:47.389Z,51.88
2022-11-17T04:31:47.429Z,48.34
2022-11-17T04:32:47.372Z,52.05
2022-11-17T04:33:47.350Z,49.79
2022-11-17T04:34:47.338Z,48.02
2022-11-17T04:35:47.332Z,48.66
2022-11-17T04:36:47.321Z,50.27
2022-11-17T04:37:47.312Z,52.37
2022-11-17T04:38:47.291Z,50.27
2022-11-17T04:39:47.269Z,47.86
2022-11-17T04:40:47.250Z,50.76
2022-11-17T04:41:47.260Z,53.82
2022-11-17T04:42:47.231Z,53.66
2022-11-17T04:43:47.220Z,52.37
2022-11-17T04:44:47.203Z,52.21
2022-11-17T04:45:47.366Z,51.56
2022-11-17T04:46:47.202Z,50.11
2022-11-17T04:47:47.171Z,53.17
2022-11-17T04:48:47.152Z,50.27
2022-11-17T04:49:47.141Z,53.01
2022-11-17T04:50:47.122Z,54.62
2022-11-17T04:51:47.183Z,51.08
2022-11-17T04:52:47.101Z,49.47
2022-11-17T04:53:47.092Z,57.04
2022-11-17T04:54:47.071Z,51.08
2022-11-17T04:55:47.063Z,55.91
2022-11-17T04:56:47.060Z,49.79
2022-11-17T04:57:47.039Z,51.40
2022-11-17T04:58:47.013Z,49.47
2022-11-17T04:59:47.003Z,52.05
2022-11-17T05:00:46.981Z,51.56
2022-11-17T05:01:47.010Z,49.31
2022-11-17T05:02:46.962Z,62.84
2022-11-17T05:03:46.955Z,49.95
2022-11-17T05:04:46.934Z,51.56
2022-11-17T05:05:46.933Z,54.95
2022-11-17T05:06:46.922Z,58.01
2022-11-17T05:07:46.902Z,56.40
2022-11-17T05:08:46.883Z,54.79
2022-11-17T05:09:46.876Z,57.52
2022-11-17T05:10:46.873Z,59.62
2022-11-17T05:11:46.862Z,61.71
2022-11-17T05:12:46.827Z,56.40
2022-11-17T05:13:46.816Z,53.82
2022-11-17T05:14:46.795Z,59.94
2022-11-17T05:15:46.795Z,59.78
2022-11-17T05:16:46.785Z,55.75
2022-11-17T05:17:46.765Z,58.01
2022-11-17T05:18:46.746Z,53.01
2022-11-17T05:19:46.807Z,54.14
2022-11-17T05:20:46.724Z,53.50
2022-11-17T05:21:46.733Z,55.43
2022-11-17T05:22:46.697Z,57.69
2022-11-17T05:23:46.687Z,54.95
2022-11-17T05:24:46.667Z,58.65
2022-11-17T05:25:46.656Z,59.78
2022-11-17T05:26:46.654Z,56.56
2022-11-17T05:27:46.628Z,59.14
2022-11-17T05:28:46.617Z,58.65
2022-11-17T05:29:46.636Z,61.55
2022-11-17T05:30:46.585Z,60.26
2022-11-17T05:31:46.587Z,60.26
2022-11-17T05:32:46.556Z,58.01
2022-11-17T05:33:46.555Z,57.52
2022-11-17T05:34:46.528Z,58.01
2022-11-17T05:35:46.525Z,57.85
2022-11-17T05:36:46.517Z,55.27
2022-11-17T05:37:46.497Z,53.82
2022-11-17T05:38:46.488Z,53.33
2022-11-17T05:39:46.479Z,57.04
2022-11-17T05:40:46.486Z,54.30
2022-11-17T05:41:46.449Z,56.24
2022-11-17T05:42:46.418Z,57.04
2022-11-17T05:43:46.417Z,55.27
2022-11-17T05:44:46.397Z,58.49
2022-11-17T05:45:46.388Z,59.30
2022-11-17T05:46:46.390Z,57.69
2022-11-17T05:47:46.359Z,58.97
2022-11-17T05:48:46.346Z,55.75
2022-11-17T05:49:46.341Z,57.52
2022-11-17T05:50:46.310Z,55.27
2022-11-17T05:51:51.287Z,56.07
2022-11-17T05:52:47.295Z,55.75
2022-11-17T05:53:46.279Z,64.45
2022-11-17T05:54:46.268Z,56.88
2022-11-17T05:55:46.261Z,55.59
2022-11-17T05:56:46.240Z,54.62
2022-11-17T05:57:46.241Z,61.71
2022-11-17T05:58:46.209Z,53.82
2022-11-17T05:59:46.201Z,55.27
2022-11-17T06:00:46.181Z,55.59
2022-11-17T06:01:46.180Z,59.94
2022-11-17T06:02:46.191Z,57.04
2022-11-17T06:03:46.269Z,57.85
2022-11-17T06:04:46.133Z,59.78
2022-11-17T06:05:46.120Z,59.14
2022-11-17T06:06:46.103Z,59.78
2022-11-17T06:07:46.112Z,58.01
2022-11-17T06:08:46.072Z,58.17
2022-11-17T06:09:46.070Z,59.46
2022-11-17T06:10:46.048Z,56.56
2022-11-17T06:11:46.034Z,56.88
2022-11-17T06:12:46.045Z,60.75
2022-11-17T06:13:46.011Z,58.33
2022-11-17T06:14:46.032Z,60.91
2022-11-17T06:15:45.985Z,60.26
2022-11-17T06:16:45.979Z,53.66
2022-11-17T06:17:45.993Z,55.91
2022-11-17T06:18:45.961Z,57.85
2022-11-17T06:19:45.943Z,58.81
2022-11-17T06:20:45.913Z,55.11
2022-11-17T06:22:10.496Z,57.04
2022-11-17T06:22:48.605Z,59.30
2022-11-17T06:23:45.885Z,55.75
2022-11-17T06:24:45.894Z,54.46
2022-11-17T06:25:45.852Z,63.65
2022-11-17T06:26:45.823Z,55.75
2022-11-17T06:27:45.897Z,62.20
2022-11-17T06:28:45.806Z,54.95
2022-11-17T06:29:45.805Z,52.53
2022-11-17T06:30:45.784Z,54.79
2022-11-17T06:31:45.765Z,58.97
2022-11-17T06:32:45.772Z,53.17
2022-11-17T06:33:45.744Z,53.82
2022-11-17T06:34:49.068Z,53.66
2022-11-17T06:35:45.715Z,55.75
2022-11-17T06:36:45.695Z,54.95
2022-11-17T06:37:45.703Z,67.35
2022-11-17T06:38:45.665Z,52.69
2022-11-17T06:39:45.655Z,60.59
2022-11-17T06:40:45.649Z,54.95
2022-11-17T06:41:45.637Z,54.30
2022-11-17T06:42:45.626Z,54.30
2022-11-17T06:43:45.616Z,57.36
2022-11-17T06:44:45.592Z,63.65
2022-11-17T06:45:45.576Z,58.97
2022-11-17T06:46:48.962Z,55.43
2022-11-17T06:47:45.567Z,54.95
2022-11-17T06:48:45.538Z,57.85
2022-11-17T06:49:45.526Z,57.04
2022-11-17T06:50:45.507Z,61.23
2022-11-17T06:51:45.802Z,57.85
2022-11-17T06:52:45.500Z,58.17
2022-11-17T06:53:45.478Z,56.24
2022-11-17T06:54:45.467Z,60.59
2022-11-17T06:55:45.448Z,57.04
2022-11-17T06:56:45.428Z,59.78
2022-11-17T06:57:50.342Z,56.07
2022-11-17T06:58:46.399Z,62.68
2022-11-17T06:59:45.390Z,55.75
2022-11-17T07:00:45.403Z,56.56
2022-11-17T07:01:45.360Z,55.43
2022-11-17T07:02:45.367Z,57.52
2022-11-17T07:03:45.338Z,56.07
2022-11-17T07:04:45.339Z,59.94
2022-11-17T07:05:45.320Z,56.07
2022-11-17T07:06:45.311Z,56.07
2022-11-17T07:07:45.288Z,50.76
2022-11-17T07:08:45.269Z,52.21
2022-11-17T07:09:45.259Z,51.56
2022-11-17T07:10:49.314Z,51.56
2022-11-17T07:11:45.251Z,51.08
2022-11-17T07:12:45.211Z,52.21
2022-11-17T07:13:45.200Z,52.69
2022-11-17T07:14:45.188Z,64.29
2022-11-17T07:15:45.183Z,52.53
2022-11-17T07:16:45.180Z,51.08
2022-11-17T07:17:45.151Z,51.56
2022-11-17T07:18:45.132Z,52.05
2022-11-17T07:19:45.792Z,63.16
2022-11-17T07:20:45.112Z,52.69
2022-11-17T07:21:45.112Z,59.46
2022-11-17T07:22:45.080Z,58.49
2022-11-17T07:23:45.074Z,62.20
2022-11-17T07:24:45.065Z,62.04
2022-11-17T07:25:45.043Z,61.07
2022-11-17T07:26:45.052Z,57.36
2022-11-17T07:27:45.015Z,59.46
2022-11-17T07:28:45.003Z,57.04
2022-11-17T07:29:44.995Z,60.26
2022-11-17T07:30:44.975Z,57.20
2022-11-17T07:31:44.983Z,53.17
2022-11-17T07:32:44.943Z,55.27
2022-11-17T07:33:44.932Z,51.88
2022-11-17T07:34:44.923Z,53.33
2022-11-17T07:35:44.913Z,51.72
2022-11-17T07:36:44.904Z,53.66
2022-11-17T07:37:44.882Z,56.56
2022-11-17T07:38:44.865Z,58.49
2022-11-17T07:39:44.853Z,62.20
2022-11-17T07:40:44.838Z,64.78
2022-11-17T07:41:44.846Z,55.91
2022-11-17T07:42:44.816Z,56.07
2022-11-17T07:43:44.804Z,59.14
2022-11-17T07:44:44.793Z,57.52
2022-11-17T07:45:44.776Z,54.30
2022-11-17T07:46:44.775Z,63.33
2022-11-17T07:47:44.745Z,59.94
2022-11-17T07:48:44.739Z,59.46
2022-11-17T07:49:44.723Z,56.07
2022-11-17T07:50:44.715Z,54.62
2022-11-17T07:51:44.717Z,58.49
2022-11-17T07:52:44.685Z,67.51
2022-11-17T07:53:44.686Z,55.27
2022-11-17T07:54:44.646Z,53.98
2022-11-17T07:55:44.636Z,53.66
2022-11-17T07:56:44.644Z,56.07
2022-11-17T07:57:44.614Z,53.82
2022-11-17T07:58:44.606Z,56.88
2022-11-17T07:59:44.588Z,56.40
2022-11-17T08:00:44.600Z,53.98
2022-11-17T08:01:44.576Z,57.52
2022-11-17T08:02:44.553Z,56.72
2022-11-17T08:03:44.572Z,54.62
2022-11-17T08:04:44.525Z,57.04
2022-11-17T08:05:44.506Z,53.82
2022-11-17T08:06:44.507Z,55.75
2022-11-17T08:07:44.480Z,53.98
2022-11-17T08:08:44.475Z,65.42
2022-11-17T08:09:44.452Z,53.98
2022-11-17T08:10:44.456Z,53.98
2022-11-17T08:11:44.437Z,69.77
2022-11-17T08:12:44.417Z,54.95
2022-11-17T08:13:44.398Z,64.29
2022-11-17T08:14:44.387Z,60.26
2022-11-17T08:15:45.053Z,55.59
2022-11-17T08:16:44.378Z,52.53
2022-11-17T08:17:44.347Z,53.66
2022-11-17T08:18:50.564Z,63.65
2022-11-17T08:19:45.319Z,54.14
2022-11-17T08:20:44.308Z,53.33
2022-11-17T08:21:44.309Z,54.62
2022-11-17T08:22:44.288Z,57.52
2022-11-17T08:23:44.278Z,55.75
2022-11-17T08:24:44.258Z,55.91
2022-11-17T08:25:44.238Z,62.84
2022-11-17T08:26:44.248Z,67.51
2022-11-17T08:27:44.221Z,62.04
2022-11-17T08:28:44.201Z,62.52
2022-11-17T08:29:44.190Z,57.69
2022-11-17T08:30:44.180Z,61.55
2022-11-17T08:31:44.171Z,58.49
2022-11-17T08:32:44.159Z,58.97
2022-11-17T08:33:44.131Z,58.97
2022-11-17T08:34:44.125Z,64.94
2022-11-17T08:35:44.100Z,58.97
2022-11-17T08:36:44.114Z,59.78
2022-11-17T08:37:44.083Z,65.26
2022-11-17T08:38:44.070Z,61.71
2022-11-17T08:39:44.050Z,59.94
2022-11-17T08:40:44.043Z,59.94
2022-11-17T08:41:44.050Z,59.78
2022-11-17T08:42:44.021Z,62.20
2022-11-17T08:43:44.000Z,54.62
2022-11-17T08:44:43.991Z,61.07
2022-11-17T08:45:43.983Z,55.27
2022-11-17T08:46:43.979Z,68.00
2022-11-17T08:47:43.941Z,60.42
2022-11-17T08:48:43.932Z,53.01
2022-11-17T08:49:43.921Z,58.01
2022-11-17T08:50:43.905Z,55.75
2022-11-17T08:51:43.909Z,64.94
2022-11-17T08:52:43.882Z,63.65
2022-11-17T08:53:43.862Z,67.51
2022-11-17T08:54:43.853Z,64.94
2022-11-17T08:57:00.669Z,63.81
2022-11-17T08:58:00.558Z,68.96
2022-11-17T08:59:00.552Z,75.25
2022-11-17T09:00:00.530Z,66.87
2022-11-17T09:01:05.114Z,71.54
2022-11-17T09:02:01.529Z,69.45
2022-11-17T09:03:00.490Z,71.38
2022-11-17T09:04:00.474Z,69.77
2022-11-17T09:05:00.473Z,61.71
2022-11-17T09:06:00.450Z,71.06
2022-11-17T09:07:00.522Z,66.23
2022-11-17T09:08:22.444Z,73.96
2022-11-17T09:09:01.775Z,79.92
2022-11-17T09:10:00.403Z,69.61
2022-11-17T09:11:00.385Z,63.49
2022-11-17T09:12:00.393Z,57.52
2022-11-17T09:13:00.362Z,54.79
2022-11-17T09:14:00.380Z,61.39
2022-11-17T09:15:00.351Z,55.27
2022-11-17T09:16:00.342Z,54.14
2022-11-17T09:17:00.347Z,52.85
2022-11-17T09:18:00.305Z,52.21
2022-11-17T09:19:00.282Z,52.85
2022-11-17T09:20:00.291Z,51.88
2022-11-17T09:21:00.263Z,54.79
2022-11-17T09:22:00.264Z,53.01
2022-11-17T09:23:00.223Z,59.14
2022-11-17T09:24:00.228Z,60.26
2022-11-17T09:25:00.203Z,53.33
2022-11-17T09:26:00.198Z,52.85
2022-11-17T09:27:00.193Z,53.01
2022-11-17T09:28:00.175Z,54.95
2022-11-17T09:29:00.153Z,53.33
2022-11-17T09:30:00.144Z,54.14
2022-11-17T09:31:01.498Z,53.33
2022-11-17T09:32:00.115Z,54.79
2022-11-17T09:33:00.101Z,53.01
2022-11-17T09:34:04.862Z,53.82
2022-11-17T09:35:01.106Z,53.01
2022-11-17T09:36:00.111Z,58.97
2022-11-17T09:37:00.045Z,53.33
2022-11-17T09:38:00.041Z,54.79
2022-11-17T09:39:00.016Z,53.01
2022-11-17T09:40:00.028Z,53.01
2022-11-17T09:41:00.017Z,52.05
2022-11-17T09:41:59.995Z,52.21
2022-11-17T09:42:59.986Z,51.88
2022-11-17T09:43:59.968Z,54.62
2022-11-17T09:44:59.936Z,51.88
2022-11-17T09:46:04.484Z,55.91
2022-11-17T09:47:00.936Z,53.01
2022-11-17T09:48:18.566Z,62.20
2022-11-17T09:49:00.886Z,54.30
2022-11-17T09:49:59.867Z,52.69
2022-11-17T09:50:59.857Z,59.30
2022-11-17T09:51:59.878Z,55.27
2022-11-17T09:52:59.839Z,58.81
2022-11-17T09:53:59.819Z,51.08
2022-11-17T09:54:59.796Z,50.60
2022-11-17T09:55:59.787Z,61.07
2022-11-17T09:56:59.804Z,56.56
2022-11-17T09:57:59.767Z,53.82
2022-11-17T09:58:59.749Z,51.40
2022-11-17T09:59:59.743Z,58.65
2022-11-17T10:00:59.718Z,59.46
2022-11-17T10:01:59.769Z,55.11
2022-11-17T10:02:59.701Z,60.26
2022-11-17T10:03:59.688Z,54.62
2022-11-17T10:04:59.669Z,56.40
2022-11-17T10:05:59.690Z,51.88
2022-11-17T10:06:59.715Z,52.37
2022-11-17T10:07:59.640Z,54.95
2022-11-17T10:08:59.624Z,53.17
2022-11-17T10:09:59.600Z,55.59
2022-11-17T10:10:59.590Z,57.85
2022-11-17T10:11:59.590Z,51.88
2022-11-17T10:12:59.560Z,51.88
2022-11-17T10:13:59.550Z,53.33
2022-11-17T10:14:59.534Z,56.40
2022-11-17T10:15:59.523Z,61.55
2022-11-17T10:16:59.542Z,68.80
2022-11-17T10:17:59.512Z,53.98
2022-11-17T10:18:59.484Z,56.24
2022-11-17T10:19:59.462Z,53.98
2022-11-17T10:20:59.473Z,58.17
2022-11-17T10:21:59.442Z,55.27
2022-11-17T10:22:59.440Z,55.59
2022-11-17T10:23:59.462Z,52.53
2022-11-17T10:24:59.395Z,54.46
2022-11-17T10:25:59.402Z,52.69
2022-11-17T10:26:59.365Z,63.65
2022-11-17T10:27:59.366Z,55.91
2022-11-17T10:29:01.787Z,56.07
2022-11-17T10:30:00.360Z,60.42
2022-11-17T10:30:59.333Z,52.21
2022-11-17T10:31:59.305Z,58.97
2022-11-17T10:32:59.295Z,61.87
2022-11-17T10:33:59.313Z,51.56
2022-11-17T10:34:59.272Z,54.14
2022-11-17T10:35:59.265Z,53.01
2022-11-17T10:36:59.244Z,51.08
2022-11-17T10:37:59.236Z,59.78
2022-11-17T10:38:59.217Z,52.53
2022-11-17T10:39:59.205Z,50.11
2022-11-17T10:40:59.178Z,60.26
2022-11-17T10:41:59.206Z,59.46
2022-11-17T10:42:59.157Z,57.52
2022-11-17T10:43:59.154Z,61.23
2022-11-17T10:44:59.129Z,65.74
2022-11-17T10:45:59.135Z,68.48
2022-11-17T10:47:02.401Z,64.94
2022-11-17T10:47:59.125Z,58.81
2022-11-17T10:48:59.076Z,68.16
2022-11-17T10:49:59.076Z,66.06
2022-11-17T10:50:59.073Z,65.42
2022-11-17T10:51:59.037Z,69.77
2022-11-17T10:52:59.029Z,71.54
2022-11-17T10:53:59.016Z,71.54
2022-11-17T10:54:58.997Z,68.32
2022-11-17T10:55:59.009Z,66.23
2022-11-17T10:56:58.980Z,59.30
2022-11-17T10:57:58.988Z,51.88
2022-11-17T10:58:58.950Z,52.37
2022-11-17T10:59:58.939Z,51.88
2022-11-17T11:00:58.976Z,52.37
2022-11-17T11:01:58.908Z,52.37
2022-11-17T11:02:58.888Z,54.14
2022-11-17T11:03:58.877Z,51.72
2022-11-17T11:04:58.869Z,51.56
2022-11-17T11:05:58.871Z,49.79
2022-11-17T11:06:58.905Z,51.24
2022-11-17T11:07:58.840Z,52.05
2022-11-17T11:08:58.827Z,51.88
2022-11-17T11:09:58.803Z,48.66
2022-11-17T11:10:58.812Z,51.56
2022-11-17T11:11:58.789Z,49.79
2022-11-17T11:12:58.762Z,52.21
2022-11-17T11:13:58.785Z,54.14
2022-11-17T11:14:58.737Z,63.16
2022-11-17T11:15:58.742Z,57.20
2022-11-17T11:16:58.706Z,60.59
2022-11-17T11:17:58.710Z,58.97
2022-11-17T11:18:58.683Z,59.78
2022-11-17T11:19:58.669Z,53.17
2022-11-17T11:20:58.663Z,53.17
2022-11-17T11:21:58.656Z,56.40
2022-11-17T11:22:58.653Z,50.76
2022-11-17T11:23:58.636Z,54.30
2022-11-17T11:24:58.604Z,51.40
2022-11-17T11:25:58.603Z,50.76
2022-11-17T11:26:58.571Z,54.62
2022-11-17T11:27:58.578Z,52.05
2022-11-17T11:28:58.555Z,53.33
2022-11-17T11:29:58.552Z,48.18
2022-11-17T11:30:58.532Z,49.63
2022-11-17T11:31:58.523Z,50.60
2022-11-17T11:32:58.494Z,56.88
2022-11-17T11:33:58.486Z,58.01
2022-11-17T11:34:58.471Z,49.63
2022-11-17T11:35:58.472Z,50.76
2022-11-17T11:36:58.442Z,52.37
2022-11-17T11:37:58.433Z,50.76
2022-11-17T11:38:58.412Z,50.76
2022-11-17T11:39:58.407Z,51.40
2022-11-17T11:40:58.394Z,52.69
2022-11-17T11:42:00.993Z,53.17
2022-11-17T11:42:59.355Z,58.81
2022-11-17T11:43:58.354Z,53.98
2022-11-17T11:44:58.344Z,52.05
2022-11-17T11:45:58.335Z,49.31
2022-11-17T11:46:58.302Z,56.72
2022-11-17T11:47:58.296Z,55.59
2022-11-17T11:48:58.277Z,54.14
2022-11-17T11:49:58.266Z,49.79
2022-11-17T11:50:58.363Z,59.94
2022-11-17T11:51:58.255Z,52.21
2022-11-17T11:52:58.237Z,52.05
2022-11-17T11:53:58.218Z,51.40
2022-11-17T11:54:58.214Z,53.98
2022-11-17T11:55:58.217Z,51.56
2022-11-17T11:56:58.166Z,49.95
2022-11-17T11:57:58.181Z,53.17
2022-11-17T11:58:58.166Z,60.59
2022-11-17T12:00:03.522Z,56.88
2022-11-17T12:00:59.145Z,58.17
2022-11-17T12:01:58.212Z,56.07
2022-11-17T12:02:58.119Z,56.07
2022-11-17T12:03:58.086Z,56.07
2022-11-17T12:04:58.070Z,58.17
2022-11-17T12:05:58.097Z,58.01
2022-11-17T12:06:58.090Z,52.37
2022-11-17T12:07:58.028Z,55.59
2022-11-17T12:08:58.018Z,53.33
2022-11-17T12:09:58.001Z,52.85
2022-11-17T12:10:58.011Z,59.62
2022-11-17T12:11:57.990Z,55.11
2022-11-17T12:12:57.970Z,52.85
2022-11-17T12:13:57.965Z,55.27
2022-11-17T12:14:57.928Z,54.14
2022-11-17T12:15:57.940Z,63.97
2022-11-17T12:16:57.901Z,54.30
2022-11-17T12:17:57.891Z,58.17
2022-11-17T12:18:57.892Z,54.95
2022-11-17T12:19:57.880Z,59.94
2022-11-17T12:20:57.870Z,59.94
2022-11-17T12:21:57.854Z,62.36
2022-11-17T12:22:57.879Z,56.24
2022-11-17T12:23:57.811Z,64.94
2022-11-17T12:24:57.815Z,57.52
2022-11-17T12:25:57.812Z,59.78
2022-11-17T12:26:57.792Z,53.82
2022-11-17T12:27:57.771Z,55.27
2022-11-17T12:28:57.745Z,60.10
2022-11-17T12:29:57.736Z,63.00
2022-11-17T12:30:57.732Z,57.52
2022-11-17T12:31:57.714Z,59.94
2022-11-17T12:32:57.692Z,58.65
2022-11-17T12:33:57.684Z,66.71
2022-11-17T12:34:57.664Z,62.20
2022-11-17T12:35:57.694Z,60.59
2022-11-17T12:36:57.669Z,63.33
2022-11-17T12:37:57.654Z,57.04
2022-11-17T12:38:57.615Z,63.81
2022-11-17T12:39:57.598Z,55.75
2022-11-17T12:40:57.602Z,68.64
2022-11-17T12:41:57.612Z,56.07
2022-11-17T12:42:57.557Z,58.49
2022-11-17T12:43:57.544Z,59.78
2022-11-17T12:44:57.549Z,54.79
2022-11-17T12:45:57.545Z,56.88
2022-11-17T12:46:57.515Z,56.72
2022-11-17T12:48:18.827Z,58.81
2022-11-17T12:48:58.564Z,53.17
2022-11-17T12:49:57.476Z,52.85
2022-11-17T12:51:01.954Z,58.17
2022-11-17T12:51:58.443Z,55.75
2022-11-17T12:52:57.426Z,55.27
2022-11-17T12:53:57.457Z,51.72
2022-11-17T12:54:57.400Z,63.49